Time;durP1;ratioP1;P1;durP2;ratioP2;P2;SDS_P1;SDS_P2;PMS_P1;PMS_P2;Temp;Humidity;BMP_temperature;BMP_pressure;BME280_temperature;BME280_humidity;BME280_pressure;Samples;Min_cycle;Max_cycle;Signal;HPM_P1;HPM_P2
2023/04/13 00:00:28;;;;;;;;;;;6.30;99.90;;;;;;5137810;27;20254;-49
2023/04/13 00:02:54;;;;;;;;;;;6.30;99.90;;;;;;5137333;27;20353;-51
2023/04/13 00:05:20;;;;;;;;;;;6.40;99.90;;;;;;5136615;27;19919;-48
2023/04/13 00:07:47;;;;;;;;;;;6.40;99.90;;;;;;5137422;27;20380;-50
2023/04/13 00:10:14;;;;;;;;;;;6.50;99.90;;;;;;5118654;27;19969;-50
2023/04/13 00:12:41;;;;;;;;;;;6.50;99.90;;;;;;5132799;27;19923;-50
2023/04/13 00:15:08;;;;;;;;;;;6.60;99.90;;;;;;5135554;27;19920;-49
2023/04/13 00:17:34;;;;;;;;;;;6.70;99.90;;;;;;5135802;27;19919;-49
2023/04/13 00:20:00;;;;;;;;;;;6.70;99.90;;;;;;5137022;27;19942;-49
2023/04/13 00:22:28;;;;;;;;;;;6.80;99.90;;;;;;5137630;27;20269;-49
2023/04/13 00:24:54;;;;;;;;;;;6.90;99.90;;;;;;5136570;27;19955;-49
2023/04/13 00:27:20;;;;;;;;;;;6.90;99.90;;;;;;5144155;27;19957;-48
2023/04/13 00:29:46;;;;;;;;;;;6.90;99.90;;;;;;5149095;27;19963;-48
2023/04/13 00:32:11;;;;;;;;;;;6.90;99.90;;;;;;5135990;27;20360;-48
2023/04/13 00:34:37;;;;;;;;;;;6.90;99.90;;;;;;5136779;27;19919;-49
2023/04/13 00:37:05;;;;;;;;;;;6.90;99.90;;;;;;5136646;27;19950;-50
2023/04/13 00:39:31;;;;;;;;;;;6.90;99.90;;;;;;5118059;27;19969;-49
2023/04/13 00:41:57;;;;;;;;;;;6.80;99.90;;;;;;5134535;27;20322;-48
2023/04/13 00:44:23;;;;;;;;;;;6.70;99.90;;;;;;5136087;27;19919;-49
2023/04/13 00:46:49;;;;;;;;;;;6.80;99.90;;;;;;5113789;28;19924;-52
2023/04/13 00:49:16;;;;;;;;;;;6.70;99.90;;;;;;5116022;28;19920;-51
2023/04/13 00:51:46;;;;;;;;;;;6.60;99.90;;;;;;5133739;27;19919;-49
2023/04/13 00:54:15;;;;;;;;;;;6.60;99.90;;;;;;5136168;27;20022;-50
2023/04/13 00:56:41;;;;;;;;;;;6.60;99.90;;;;;;5136265;27;19926;-49
2023/04/13 00:59:10;;;;;;;;;;;6.50;99.90;;;;;;5136393;27;19919;-49
2023/04/13 01:01:44;;;;;;;;;;;6.50;99.90;;;;;;5136015;27;19995;-52
2023/04/13 01:04:12;;;;;;;;;;;6.50;99.90;;;;;;5133241;27;19942;-51
2023/04/13 01:06:42;;;;;;;;;;;6.40;99.90;;;;;;5134752;27;19930;-52
2023/04/13 01:09:10;;;;;;;;;;;6.40;99.90;;;;;;5137502;27;20010;-49
2023/04/13 01:11:38;;;;;;;;;;;6.40;99.90;;;;;;5136767;27;19919;-51
2023/04/13 01:14:17;;;;;;;;;;;6.40;99.90;;;;;;5136002;27;19919;-51
2023/04/13 01:16:45;;;;;;;;;;;6.40;99.90;;;;;;5116172;27;19923;-50
2023/04/13 01:19:18;;;;;;;;;;;6.40;99.90;;;;;;5135627;27;20353;-50
2023/04/13 01:21:43;;;;;;;;;;;6.30;99.90;;;;;;5132553;27;19923;-50
2023/04/13 01:24:35;;;;;;;;;;;6.40;99.90;;;;;;5133534;27;19976;-49
2023/04/13 01:27:11;;;;;;;;;;;6.40;99.90;;;;;;5089133;27;19926;-52
2023/04/13 01:29:38;;;;;;;;;;;6.40;99.90;;;;;;5129540;27;19915;-49
2023/04/13 01:32:04;;;;;;;;;;;6.40;99.90;;;;;;5128412;27;19930;-49
2023/04/13 01:34:29;;;;;;;;;;;6.40;99.90;;;;;;5129932;27;20010;-50
2023/04/13 01:36:55;;;;;;;;;;;6.40;99.90;;;;;;5109721;27;20014;-49
2023/04/13 01:39:24;;;;;;;;;;;6.40;99.90;;;;;;5130079;27;20260;-49
2023/04/13 01:41:49;;;;;;;;;;;6.40;99.90;;;;;;5105048;27;19930;-49
2023/04/13 01:44:15;;;;;;;;;;;6.40;99.90;;;;;;5129614;27;19919;-50
2023/04/13 01:46:45;;;;;;;;;;;6.40;99.90;;;;;;5128761;27;19964;-52
2023/04/13 01:49:13;;;;;;;;;;;6.40;99.90;;;;;;5127407;27;19978;-49
2023/04/13 01:51:40;;;;;;;;;;;6.40;99.90;;;;;;5126863;27;20326;-50
2023/04/13 01:54:10;;;;;;;;;;;6.40;99.90;;;;;;5129396;27;19925;-49
2023/04/13 01:56:37;;;;;;;;;;;6.40;99.90;;;;;;5124576;27;19919;-49
2023/04/13 01:59:03;;;;;;;;;;;6.40;99.90;;;;;;5127685;27;20281;-51
2023/04/13 02:01:29;;;;;;;;;;;6.30;99.90;;;;;;5127618;27;19966;-50
2023/04/13 02:03:55;;;;;;;;;;;6.40;99.90;;;;;;5130259;27;20009;-50
2023/04/13 02:06:21;;;;;;;;;;;6.30;99.90;;;;;;5092329;27;19925;-49
2023/04/13 02:08:47;;;;;;;;;;;6.40;99.90;;;;;;5130043;27;20005;-52
2023/04/13 02:11:12;;;;;;;;;;;6.40;99.90;;;;;;5127011;27;20349;-50
2023/04/13 02:13:38;;;;;;;;;;;6.30;99.90;;;;;;5127515;27;20010;-51
2023/04/13 02:16:05;;;;;;;;;;;6.30;99.90;;;;;;5128446;27;20278;-51
2023/04/13 02:18:32;;;;;;;;;;;6.30;99.90;;;;;;5127341;27;19926;-52
2023/04/13 02:21:06;;;;;;;;;;;6.30;99.90;;;;;;5127039;27;19949;-51
2023/04/13 02:23:33;;;;;;;;;;;6.30;99.90;;;;;;5126397;27;19972;-52
2023/04/13 02:25:59;;;;;;;;;;;6.30;99.90;;;;;;5096372;27;19919;-53
2023/04/13 02:28:26;;;;;;;;;;;6.30;99.90;;;;;;5126118;27;20283;-50
2023/04/13 02:30:53;;;;;;;;;;;6.30;99.90;;;;;;5127888;27;20010;-49
2023/04/13 02:33:20;;;;;;;;;;;6.30;99.90;;;;;;5126120;27;19927;-49
2023/04/13 02:35:48;;;;;;;;;;;6.30;99.90;;;;;;5112026;27;20446;-51
2023/04/13 02:38:14;;;;;;;;;;;6.30;99.90;;;;;;5132792;27;19919;-50
2023/04/13 02:40:41;;;;;;;;;;;6.30;99.90;;;;;;5123202;27;19923;-50
2023/04/13 02:43:07;;;;;;;;;;;6.30;99.90;;;;;;5114371;27;19927;-49
2023/04/13 02:45:33;;;;;;;;;;;6.30;99.90;;;;;;5132110;27;19919;-51
2023/04/13 02:47:58;;;;;;;;;;;6.30;99.90;;;;;;5129152;27;19930;-49
2023/04/13 02:50:24;;;;;;;;;;;6.30;99.90;;;;;;5132862;27;19935;-51
2023/04/13 02:52:52;;;;;;;;;;;6.30;99.90;;;;;;5113513;28;19919;-51
2023/04/13 02:55:17;;;;;;;;;;;6.20;99.90;;;;;;5128088;27;20269;-51
2023/04/13 02:57:43;;;;;;;;;;;6.20;99.90;;;;;;5139483;27;19926;-51
2023/04/13 03:00:09;;;;;;;;;;;6.20;99.90;;;;;;5131839;27;19930;-50
2023/04/13 03:02:36;;;;;;;;;;;6.20;99.90;;;;;;5131379;27;20377;-49
2023/04/13 03:05:04;;;;;;;;;;;6.30;99.90;;;;;;5130845;28;19965;-51
2023/04/13 03:07:31;;;;;;;;;;;6.30;99.90;;;;;;5130646;27;19920;-51
2023/04/13 03:09:56;;;;;;;;;;;6.20;99.90;;;;;;5132802;28;19962;-50
2023/04/13 03:12:22;;;;;;;;;;;6.30;99.90;;;;;;5122706;28;19973;-51
2023/04/13 03:14:48;;;;;;;;;;;6.30;99.90;;;;;;5142871;27;19923;-49
2023/04/13 03:17:15;;;;;;;;;;;6.30;99.90;;;;;;5118417;28;19919;-49
2023/04/13 03:19:41;;;;;;;;;;;6.30;99.90;;;;;;5130250;28;19924;-49
2023/04/13 03:22:07;;;;;;;;;;;6.30;99.90;;;;;;5126529;27;19919;-53
2023/04/13 03:24:34;;;;;;;;;;;6.30;99.90;;;;;;5133197;27;19927;-49
2023/04/13 03:27:01;;;;;;;;;;;6.30;99.90;;;;;;5137895;27;19923;-49
2023/04/13 03:29:26;;;;;;;;;;;6.30;99.90;;;;;;5137910;27;19921;-50
2023/04/13 03:31:52;;;;;;;;;;;6.30;99.90;;;;;;5136978;27;20287;-49
2023/04/13 03:34:17;;;;;;;;;;;6.30;99.90;;;;;;5127073;27;19927;-49
2023/04/13 03:36:43;;;;;;;;;;;6.30;99.90;;;;;;5135116;27;19938;-50
2023/04/13 03:39:09;;;;;;;;;;;6.30;99.90;;;;;;5112196;27;19923;-50
2023/04/13 03:41:34;;;;;;;;;;;6.30;99.90;;;;;;5133479;27;19953;-50
2023/04/13 03:44:00;;;;;;;;;;;6.30;99.90;;;;;;5131379;27;19919;-49
2023/04/13 03:46:26;;;;;;;;;;;6.30;99.90;;;;;;5134210;27;19919;-50
2023/04/13 03:48:51;;;;;;;;;;;6.30;99.90;;;;;;5136865;27;19920;-49
2023/04/13 03:51:17;;;;;;;;;;;6.40;99.90;;;;;;5118223;27;20388;-50
2023/04/13 03:53:42;;;;;;;;;;;6.30;99.90;;;;;;5136649;27;19930;-49
2023/04/13 03:56:08;;;;;;;;;;;6.40;99.90;;;;;;5136565;27;19919;-53
2023/04/13 03:58:34;;;;;;;;;;;;;;;;;;5137366;27;19926;-50
2023/04/13 04:00:59;;;;;;;;;;;6.40;99.90;;;;;;5136119;27;20281;-50
2023/04/13 04:03:25;;;;;;;;;;;6.40;99.90;;;;;;5137010;27;19926;-50
2023/04/13 04:05:51;;;;;;;;;;;6.40;99.90;;;;;;5137475;27;19962;-49
2023/04/13 04:08:16;;;;;;;;;;;6.50;99.90;;;;;;5136474;27;19938;-49
2023/04/13 04:10:42;;;;;;;;;;;6.50;99.90;;;;;;5135489;27;19923;-49
2023/04/13 04:13:07;;;;;;;;;;;6.50;99.90;;;;;;5137291;27;19926;-49
2023/04/13 04:15:33;;;;;;;;;;;6.50;99.90;;;;;;5137177;27;19926;-51
2023/04/13 04:17:59;;;;;;;;;;;6.50;99.90;;;;;;5118348;27;20392;-50
2023/04/13 04:20:25;;;;;;;;;;;6.40;99.90;;;;;;5136876;27;19942;-49
2023/04/13 04:22:51;;;;;;;;;;;6.40;99.90;;;;;;5134731;27;20022;-50
2023/04/13 04:25:20;;;;;;;;;;;6.40;99.90;;;;;;5116386;27;19923;-49
2023/04/13 04:27:48;;;;;;;;;;;6.40;99.90;;;;;;5119500;27;19930;-50
2023/04/13 04:30:14;;;;;;;;;;;6.40;99.90;;;;;;5136950;27;19919;-49
2023/04/13 04:32:40;;;;;;;;;;;6.30;99.90;;;;;;5136669;27;19919;-49
2023/04/13 04:35:06;;;;;;;;;;;6.30;99.90;;;;;;5118238;27;19920;-49
2023/04/13 04:37:36;;;;;;;;;;;6.30;99.90;;;;;;5135671;27;19919;-48
2023/04/13 04:40:06;;;;;;;;;;;6.30;99.90;;;;;;5136629;27;19946;-50
2023/04/13 04:42:33;;;;;;;;;;;6.30;99.90;;;;;;5135777;27;19926;-49
2023/04/13 04:44:59;;;;;;;;;;;6.30;99.90;;;;;;5135216;27;19927;-53
2023/04/13 04:47:24;;;;;;;;;;;6.20;99.90;;;;;;5134904;27;20326;-49
2023/04/13 04:49:50;;;;;;;;;;;6.20;99.90;;;;;;5134736;27;19926;-49
2023/04/13 04:52:15;;;;;;;;;;;6.10;99.90;;;;;;5135606;27;19961;-49
2023/04/13 04:54:41;;;;;;;;;;;6.00;99.90;;;;;;5136580;27;20001;-49
2023/04/13 04:57:09;;;;;;;;;;;5.90;99.90;;;;;;5135984;27;19977;-48
2023/04/13 04:59:35;;;;;;;;;;;5.90;99.90;;;;;;5109872;27;20377;-48
2023/04/13 05:02:00;;;;;;;;;;;5.80;99.90;;;;;;5110509;28;20029;-49
2023/04/13 05:04:26;;;;;;;;;;;5.80;99.90;;;;;;5121096;27;19920;-50
2023/04/13 05:06:51;;;;;;;;;;;5.80;99.90;;;;;;5136073;27;20060;-49
2023/04/13 05:09:19;;;;;;;;;;;5.80;99.90;;;;;;5136229;27;19959;-49
2023/04/13 05:11:44;;;;;;;;;;;5.80;99.90;;;;;;5119245;27;19923;-53
2023/04/13 05:14:10;;;;;;;;;;;5.80;99.90;;;;;;5120540;27;20096;-50
2023/04/13 05:16:36;;;;;;;;;;;5.80;99.90;;;;;;5122198;27;19983;-49
2023/04/13 05:19:04;;;;;;;;;;;5.90;99.90;;;;;;5117327;27;20289;-49
2023/04/13 05:21:29;;;;;;;;;;;5.90;99.90;;;;;;5115360;28;20298;-52
2023/04/13 05:23:55;;;;;;;;;;;5.90;99.90;;;;;;5105361;27;19920;-50
2023/04/13 05:26:21;;;;;;;;;;;5.90;99.90;;;;;;5135779;27;20018;-50
2023/04/13 05:28:46;;;;;;;;;;;6.00;99.90;;;;;;5134083;27;19971;-54
2023/04/13 05:31:12;;;;;;;;;;;6.00;99.90;;;;;;5134974;27;19926;-50
2023/04/13 05:33:37;;;;;;;;;;;6.10;99.90;;;;;;5128585;27;19920;-52
2023/04/13 05:36:03;;;;;;;;;;;6.20;99.90;;;;;;5121287;27;19919;-54
2023/04/13 05:38:29;;;;;;;;;;;6.30;99.90;;;;;;5135777;27;20288;-52
2023/04/13 05:40:56;;;;;;;;;;;6.30;99.90;;;;;;5135542;27;20369;-50
2023/04/13 05:43:22;;;;;;;;;;;6.40;99.90;;;;;;5134825;27;19984;-51
2023/04/13 05:45:47;;;;;;;;;;;6.50;99.90;;;;;;5133288;27;20453;-51
2023/04/13 05:48:13;;;;;;;;;;;6.60;99.90;;;;;;5134486;27;20006;-50
2023/04/13 05:50:38;;;;;;;;;;;6.70;99.90;;;;;;5131180;27;19929;-51
2023/04/13 05:53:07;;;;;;;;;;;6.90;99.90;;;;;;5111352;28;19968;-49
2023/04/13 05:55:33;;;;;;;;;;;7.20;99.90;;;;;;5111975;27;19951;-50
2023/04/13 05:58:04;;;;;;;;;;;7.70;99.90;;;;;;5132144;27;20000;-50
2023/04/13 06:00:31;;;;;;;;;;;7.80;99.90;;;;;;5125587;27;19920;-49
2023/04/13 06:02:59;;;;;;;;;;;7.90;99.90;;;;;;5135217;27;20291;-52
2023/04/13 06:05:25;;;;;;;;;;;;;;;;;;5135033;27;20361;-49
2023/04/13 06:07:52;;;;;;;;;;;8.10;99.90;;;;;;5115655;27;19973;-51
2023/04/13 06:10:18;;;;;;;;;;;7.80;99.90;;;;;;5123243;27;19964;-51
2023/04/13 06:12:47;;;;;;;;;;;7.60;99.90;;;;;;5116211;27;20002;-50
2023/04/13 06:15:12;;;;;;;;;;;7.60;99.90;;;;;;5134440;27;19935;-49
2023/04/13 06:17:38;;;;;;;;;;;7.50;99.90;;;;;;5133482;27;19945;-49
2023/04/13 06:20:06;;;;;;;;;;;7.40;99.90;;;;;;5134752;27;19998;-53
2023/04/13 06:22:32;;;;;;;;;;;7.40;99.90;;;;;;5133970;27;19942;-49
2023/04/13 06:24:57;;;;;;;;;;;7.50;99.90;;;;;;5132713;27;19919;-49
2023/04/13 06:27:23;;;;;;;;;;;7.80;99.90;;;;;;5131924;27;19964;-50
2023/04/13 06:29:49;;;;;;;;;;;8.70;99.90;;;;;;5132331;27;19923;-49
2023/04/13 06:32:14;;;;;;;;;;;8.70;99.90;;;;;;5114013;28;19942;-52
2023/04/13 06:34:40;;;;;;;;;;;8.80;99.90;;;;;;5123027;27;20376;-51
2023/04/13 06:37:05;;;;;;;;;;;9.60;99.90;;;;;;5134081;27;19964;-49
2023/04/13 06:39:36;;;;;;;;;;;9.70;99.90;;;;;;5134245;27;19931;-49
2023/04/13 06:42:05;;;;;;;;;;;10.80;99.90;;;;;;5121394;27;19919;-51
2023/04/13 06:44:30;;;;;;;;;;;10.80;99.90;;;;;;5130455;27;19942;-49
2023/04/13 06:46:56;;;;;;;;;;;10.90;99.90;;;;;;5115279;28;20374;-51
2023/04/13 06:49:21;;;;;;;;;;;10.90;99.90;;;;;;5133979;27;19926;-51
2023/04/13 06:51:47;;;;;;;;;;;10.60;99.90;;;;;;5115293;28;19926;-49
2023/04/13 06:54:13;;;;;;;;;;;10.40;99.90;;;;;;5134371;27;19919;-49
2023/04/13 06:56:38;;;;;;;;;;;10.10;99.90;;;;;;5129751;27;19919;-49
2023/04/13 06:59:04;;;;;;;;;;;10.00;99.90;;;;;;5134398;27;19944;-49
2023/04/13 07:01:30;;;;;;;;;;;10.00;99.90;;;;;;5125517;27;20388;-51
2023/04/13 07:03:55;;;;;;;;;;;9.80;99.90;;;;;;5111318;28;19927;-50
2023/04/13 07:06:21;;;;;;;;;;;9.90;99.90;;;;;;5128041;28;19927;-53
2023/04/13 07:08:47;;;;;;;;;;;9.80;99.90;;;;;;5129385;28;19940;-50
2023/04/13 07:11:13;;;;;;;;;;;9.70;99.90;;;;;;5129169;28;19919;-49
2023/04/13 07:13:39;;;;;;;;;;;9.50;99.90;;;;;;5128072;28;19919;-51
2023/04/13 07:16:07;;;;;;;;;;;9.30;99.90;;;;;;5128911;28;19923;-48
2023/04/13 07:18:33;;;;;;;;;;;9.20;99.90;;;;;;5127024;28;20399;-49
2023/04/13 07:20:58;;;;;;;;;;;9.10;99.90;;;;;;5125326;28;19927;-49
2023/04/13 07:23:24;;;;;;;;;;;9.00;99.90;;;;;;5120970;27;19919;-49
2023/04/13 07:25:50;;;;;;;;;;;9.00;99.90;;;;;;5128404;27;19923;-48
2023/04/13 07:28:15;;;;;;;;;;;8.90;99.90;;;;;;5125713;27;20121;-51
2023/04/13 07:30:45;;;;;;;;;;;9.00;99.90;;;;;;5128888;28;20022;-49
2023/04/13 07:33:11;;;;;;;;;;;9.20;99.90;;;;;;5106433;28;19919;-49
2023/04/13 07:35:37;;;;;;;;;;;9.20;99.90;;;;;;5128334;27;19964;-50
2023/04/13 07:38:02;;;;;;;;;;;9.30;99.90;;;;;;5124369;27;20627;-50
2023/04/13 07:40:28;;;;;;;;;;;9.60;99.90;;;;;;5128854;28;19919;-49
2023/04/13 07:42:53;;;;;;;;;;;9.70;99.90;;;;;;5126251;27;19920;-49
2023/04/13 07:45:19;;;;;;;;;;;9.60;99.90;;;;;;5126924;27;20027;-50
2023/04/13 07:47:45;;;;;;;;;;;9.60;99.90;;;;;;5110054;27;20365;-49
2023/04/13 07:50:12;;;;;;;;;;;9.60;99.90;;;;;;5131096;27;19930;-50
2023/04/13 07:52:38;;;;;;;;;;;9.60;99.90;;;;;;5129308;27;19919;-50
2023/04/13 07:55:04;;;;;;;;;;;9.50;99.90;;;;;;5128145;27;20381;-50
2023/04/13 07:57:30;;;;;;;;;;;9.50;99.90;;;;;;5126633;27;19946;-49
2023/04/13 07:59:55;;;;;;;;;;;9.40;99.90;;;;;;5125769;27;20369;-50
2023/04/13 08:02:21;;;;;;;;;;;9.60;99.90;;;;;;5105573;27;19950;-50
2023/04/13 08:04:47;;;;;;;;;;;9.50;99.90;;;;;;5108838;27;19927;-51
2023/04/13 08:07:12;;;;;;;;;;;9.60;99.90;;;;;;5129489;27;20043;-50
2023/04/13 08:09:39;;;;;;;;;;;9.60;99.90;;;;;;5130262;27;20326;-51
2023/04/13 08:12:05;;;;;;;;;;;9.60;99.90;;;;;;5119940;27;20043;-49
2023/04/13 08:14:30;;;;;;;;;;;9.60;99.90;;;;;;5116011;27;19923;-49
2023/04/13 08:16:56;;;;;;;;;;;9.60;99.90;;;;;;5133789;27;20038;-49
2023/04/13 08:19:22;;;;;;;;;;;9.70;99.90;;;;;;5133155;27;19926;-49
2023/04/13 08:21:48;;;;;;;;;;;10.10;99.90;;;;;;5134990;27;19926;-52
2023/04/13 08:24:14;;;;;;;;;;;10.30;99.90;;;;;;5130251;27;19919;-50
2023/04/13 08:26:39;;;;;;;;;;;10.70;99.90;;;;;;5132869;27;19927;-50
2023/04/13 08:29:05;;;;;;;;;;;10.80;99.90;;;;;;5129032;27;20343;-51
2023/04/13 08:31:31;;;;;;;;;;;;;;;;;;5132124;27;19920;-49
2023/04/13 08:33:56;;;;;;;;;;;10.90;99.90;;;;;;5129963;27;19979;-50
2023/04/13 08:36:22;;;;;;;;;;;11.00;99.90;;;;;;5130910;27;20416;-50
2023/04/13 08:38:48;;;;;;;;;;;10.90;99.90;;;;;;5128940;27;19923;-50
2023/04/13 08:41:15;;;;;;;;;;;10.80;99.90;;;;;;5132867;27;19919;-49
2023/04/13 08:43:41;;;;;;;;;;;10.80;99.90;;;;;;5129158;27;19919;-49
2023/04/13 08:46:07;;;;;;;;;;;10.70;99.90;;;;;;5133103;27;19919;-49
2023/04/13 08:48:34;;;;;;;;;;;10.70;99.90;;;;;;5128414;27;19934;-50
2023/04/13 08:51:00;;;;;;;;;;;10.50;99.90;;;;;;5128386;27;20010;-49
2023/04/13 08:53:25;;;;;;;;;;;10.30;99.90;;;;;;5124006;27;20047;-49
2023/04/13 08:55:51;;;;;;;;;;;10.30;99.90;;;;;;5132235;27;20074;-50
2023/04/13 08:58:19;;;;;;;;;;;10.20;99.90;;;;;;5130304;27;20297;-49
2023/04/13 09:00:46;;;;;;;;;;;10.40;99.90;;;;;;5124342;27;20010;-49
2023/04/13 09:03:13;;;;;;;;;;;10.50;99.90;;;;;;5131074;27;19927;-50
2023/04/13 09:05:40;;;;;;;;;;;10.70;99.90;;;;;;5130958;27;19919;-49
2023/04/13 09:08:06;;;;;;;;;;;10.90;99.90;;;;;;5133081;27;19919;-51
2023/04/13 09:10:32;;;;;;;;;;;11.00;99.90;;;;;;5133219;27;19976;-50
2023/04/13 09:12:58;;;;;;;;;;;10.90;99.90;;;;;;5133111;27;20260;-53
2023/04/13 09:15:24;;;;;;;;;;;10.80;99.90;;;;;;5123602;27;19920;-50
2023/04/13 09:17:50;;;;;;;;;;;10.70;99.90;;;;;;5128376;27;20406;-50
2023/04/13 09:20:20;;;;;;;;;;;10.60;99.90;;;;;;5128296;27;19927;-51
2023/04/13 09:22:46;;;;;;;;;;;10.60;99.90;;;;;;5128164;27;20004;-50
2023/04/13 09:25:19;;;;;;;;;;;10.40;99.90;;;;;;5109853;27;19942;-50
2023/04/13 09:27:44;;;;;;;;;;;10.40;99.90;;;;;;5129722;27;19915;-50
2023/04/13 09:30:10;;;;;;;;;;;10.60;99.90;;;;;;5127518;27;20009;-51
2023/04/13 09:32:35;;;;;;;;;;;10.70;99.90;;;;;;5130305;27;19926;-50
2023/04/13 09:35:06;;;;;;;;;;;10.80;99.90;;;;;;5129606;27;19926;-50
2023/04/13 09:37:36;;;;;;;;;;;10.90;99.90;;;;;;5133110;27;19915;-51
2023/04/13 09:40:12;;;;;;;;;;;10.90;99.90;;;;;;5133247;27;19926;-51
2023/04/13 09:42:38;;;;;;;;;;;10.80;99.90;;;;;;5134512;27;20007;-52
2023/04/13 09:45:05;;;;;;;;;;;10.60;99.90;;;;;;5131022;27;19919;-49
2023/04/13 09:47:39;;;;;;;;;;;10.50;99.90;;;;;;5132643;27;19919;-51
2023/04/13 09:50:14;;;;;;;;;;;10.20;99.90;;;;;;5132034;27;19927;-50
2023/04/13 09:52:40;;;;;;;;;;;10.00;99.90;;;;;;5133090;27;19923;-51
2023/04/13 09:55:12;;;;;;;;;;;9.60;99.90;;;;;;5130981;27;19934;-51
2023/04/13 09:57:38;;;;;;;;;;;9.30;99.90;;;;;;5114818;27;19964;-50
2023/04/13 10:00:06;;;;;;;;;;;9.10;99.90;;;;;;5131272;27;20318;-51
2023/04/13 10:02:32;;;;;;;;;;;8.90;99.90;;;;;;5133661;27;19926;-50
2023/04/13 10:04:57;;;;;;;;;;;8.80;99.90;;;;;;5123761;27;20361;-50
2023/04/13 10:07:27;;;;;;;;;;;8.90;99.90;;;;;;5114889;27;20006;-49
2023/04/13 10:09:53;;;;;;;;;;;9.10;99.90;;;;;;5129428;27;19919;-49
2023/04/13 10:12:18;;;;;;;;;;;9.20;99.90;;;;;;5116058;27;19926;-49
2023/04/13 10:14:44;;;;;;;;;;;9.50;99.90;;;;;;5123475;27;20357;-49
2023/04/13 10:17:17;;;;;;;;;;;9.70;99.90;;;;;;5131162;27;19988;-50
2023/04/13 10:19:44;;;;;;;;;;;9.90;99.90;;;;;;5133496;27;19923;-50
2023/04/13 10:22:10;;;;;;;;;;;10.20;99.90;;;;;;5134332;27;19929;-50
2023/04/13 10:24:37;;;;;;;;;;;10.50;99.90;;;;;;5131508;27;20007;-50
2023/04/13 10:27:10;;;;;;;;;;;10.60;99.90;;;;;;5129082;27;19963;-52
2023/04/13 10:29:36;;;;;;;;;;;;;;;;;;5124745;27;19919;-50
2023/04/13 10:32:02;;;;;;;;;;;11.00;99.90;;;;;;5127682;27;19994;-49
2023/04/13 10:34:29;;;;;;;;;;;10.90;99.90;;;;;;5126079;27;19962;-51
2023/04/13 10:36:57;;;;;;;;;;;10.80;99.90;;;;;;5126391;27;19920;-50
2023/04/13 10:39:26;;;;;;;;;;;10.70;99.90;;;;;;5128510;27;19926;-50
2023/04/13 10:41:59;;;;;;;;;;;10.80;99.90;;;;;;5127113;27;19919;-50
2023/04/13 10:44:24;;;;;;;;;;;10.70;99.90;;;;;;5131755;27;19935;-50
2023/04/13 10:46:50;;;;;;;;;;;10.70;99.90;;;;;;5130025;27;20031;-52
2023/04/13 10:49:16;;;;;;;;;;;10.80;99.90;;;;;;5128610;27;19926;-49
2023/04/13 10:51:42;;;;;;;;;;;10.90;99.90;;;;;;5128578;27;19919;-49
2023/04/13 10:54:08;;;;;;;;;;;11.10;99.90;;;;;;5130625;27;19919;-50
2023/04/13 10:56:34;;;;;;;;;;;;;;;;;;5132133;27;19948;-49
2023/04/13 10:59:00;;;;;;;;;;;11.20;99.90;;;;;;5127332;27;19930;-51
2023/04/13 11:01:26;;;;;;;;;;;11.40;99.90;;;;;;5126784;27;20325;-50
2023/04/13 11:03:53;;;;;;;;;;;11.40;99.90;;;;;;5120897;27;20345;-50
2023/04/13 11:06:18;;;;;;;;;;;11.40;99.90;;;;;;5131828;27;19919;-50
2023/04/13 11:08:45;;;;;;;;;;;11.40;99.90;;;;;;5127442;28;19926;-50
2023/04/13 11:11:13;;;;;;;;;;;11.40;99.90;;;;;;5109828;27;19919;-53
2023/04/13 11:13:43;;;;;;;;;;;11.30;99.90;;;;;;5109954;28;19928;-52
2023/04/13 11:16:08;;;;;;;;;;;11.40;99.90;;;;;;5130195;27;19919;-50
2023/04/13 11:18:34;;;;;;;;;;;11.40;99.90;;;;;;5129697;27;19919;-50
2023/04/13 11:21:02;;;;;;;;;;;11.70;99.90;;;;;;5112581;28;19930;-49
2023/04/13 11:23:27;;;;;;;;;;;12.00;99.90;;;;;;5129594;27;20010;-50
2023/04/13 11:25:54;;;;;;;;;;;12.20;99.90;;;;;;5134261;28;20428;-50
2023/04/13 11:28:21;;;;;;;;;;;12.40;99.90;;;;;;5132057;28;19923;-50
2023/04/13 11:30:56;;;;;;;;;;;12.30;99.90;;;;;;5128977;28;19919;-50
2023/04/13 11:33:25;;;;;;;;;;;12.20;99.90;;;;;;5121239;28;19919;-51
2023/04/13 11:35:52;;;;;;;;;;;11.90;99.90;;;;;;5126200;28;19919;-50
2023/04/13 11:38:17;;;;;;;;;;;11.90;99.90;;;;;;5118879;28;20010;-50
2023/04/13 11:40:44;;;;;;;;;;;12.40;99.90;;;;;;5125083;28;20249;-50
2023/04/13 11:43:10;;;;;;;;;;;12.70;99.90;;;;;;5116554;28;19927;-49
2023/04/13 11:45:37;;;;;;;;;;;12.90;99.90;;;;;;5122469;27;19919;-50
2023/04/13 11:48:05;;;;;;;;;;;12.90;99.90;;;;;;5123316;27;21196;-50
2023/04/13 11:50:31;;;;;;;;;;;12.70;99.90;;;;;;5127575;27;19923;-50
2023/04/13 11:52:57;;;;;;;;;;;12.60;99.90;;;;;;5117289;27;20395;-49
2023/04/13 11:55:23;;;;;;;;;;;12.30;99.90;;;;;;5131932;27;19923;-50
2023/04/13 11:57:49;;;;;;;;;;;12.10;99.90;;;;;;5109288;27;19923;-50
2023/04/13 12:00:17;;;;;;;;;;;11.70;99.90;;;;;;5130658;27;20353;-52
2023/04/13 12:02:43;;;;;;;;;;;11.60;99.90;;;;;;5130912;27;19919;-52
2023/04/13 12:05:21;;;;;;;;;;;11.40;99.90;;;;;;5135531;27;19925;-54
2023/04/13 12:07:47;;;;;;;;;;;11.40;99.90;;;;;;5125120;27;19920;-49
2023/04/13 12:10:20;;;;;;;;;;;11.30;99.90;;;;;;5113699;27;19926;-49
2023/04/13 12:12:46;;;;;;;;;;;11.20;99.90;;;;;;5131633;27;19923;-51
2023/04/13 12:15:12;;;;;;;;;;;11.20;99.90;;;;;;5128225;27;20376;-51
2023/04/13 12:17:37;;;;;;;;;;;11.20;99.90;;;;;;5126181;27;19952;-53
2023/04/13 12:20:03;;;;;;;;;;;11.20;99.90;;;;;;5129822;27;19920;-49
2023/04/13 12:22:36;;;;;;;;;;;11.40;99.90;;;;;;5132872;27;19978;-50
2023/04/13 12:25:11;;;;;;;;;;;11.50;99.90;;;;;;5128075;27;19925;-50
2023/04/13 12:27:40;;;;;;;;;;;11.80;99.90;;;;;;5128110;27;20246;-52
2023/04/13 12:30:09;;;;;;;;;;;12.00;99.90;;;;;;5112755;27;20014;-52
2023/04/13 12:32:38;;;;;;;;;;;12.00;99.90;;;;;;5128837;27;19934;-54
2023/04/13 12:35:04;;;;;;;;;;;12.10;99.90;;;;;;5126973;27;20008;-50
2023/04/13 12:37:29;;;;;;;;;;;12.10;99.90;;;;;;5127358;27;20416;-49
2023/04/13 12:39:55;;;;;;;;;;;12.30;99.90;;;;;;5127306;27;19965;-50
2023/04/13 12:42:20;;;;;;;;;;;12.40;99.90;;;;;;5128079;27;19927;-48
2023/04/13 12:44:46;;;;;;;;;;;12.40;99.90;;;;;;5126191;27;20334;-48
2023/04/13 12:47:11;;;;;;;;;;;12.40;99.90;;;;;;5130864;27;19919;-49
2023/04/13 12:49:37;;;;;;;;;;;12.50;99.90;;;;;;5133639;27;19919;-49
2023/04/13 12:52:02;;;;;;;;;;;12.60;99.90;;;;;;5134694;27;20288;-47
2023/04/13 12:54:29;;;;;;;;;;;12.70;99.90;;;;;;5114427;27;19924;-48
2023/04/13 12:56:55;;;;;;;;;;;12.80;99.90;;;;;;5131005;27;19919;-49
2023/04/13 12:59:21;;;;;;;;;;;13.20;99.90;;;;;;5131870;27;19961;-48
2023/04/13 13:01:47;;;;;;;;;;;13.20;99.90;;;;;;5133411;27;19923;-51
2023/04/13 13:04:13;;;;;;;;;;;13.60;99.90;;;;;;5134769;27;19930;-49
2023/04/13 13:06:39;;;;;;;;;;;13.90;99.90;;;;;;5130642;27;20404;-48
2023/04/13 13:09:06;;;;;;;;;;;14.20;99.90;;;;;;5110817;27;19919;-49
2023/04/13 13:11:32;;;;;;;;;;;14.20;99.90;;;;;;5131276;27;19972;-51
2023/04/13 13:13:57;;;;;;;;;;;14.20;99.90;;;;;;5127066;27;19934;-51
2023/04/13 13:16:23;;;;;;;;;;;14.10;99.90;;;;;;5129891;27;19975;-49
2023/04/13 13:18:49;;;;;;;;;;;13.80;99.90;;;;;;5123692;27;19927;-50
2023/04/13 13:21:14;;;;;;;;;;;13.80;99.90;;;;;;5127146;27;20722;-52
2023/04/13 13:23:40;;;;;;;;;;;13.90;99.90;;;;;;5135561;27;19985;-49
2023/04/13 13:26:06;;;;;;;;;;;13.80;99.90;;;;;;5153024;27;20005;-50
2023/04/13 13:28:31;;;;;;;;;;;13.80;99.90;;;;;;5136664;27;20029;-48
2023/04/13 13:30:56;;;;;;;;;;;13.90;99.90;;;;;;5134499;27;20368;-48
2023/04/13 13:33:22;;;;;;;;;;;14.10;99.90;;;;;;5134280;27;20621;-51
2023/04/13 13:35:48;;;;;;;;;;;14.30;99.90;;;;;;5125746;27;20006;-48
2023/04/13 13:38:13;;;;;;;;;;;14.10;99.90;;;;;;5139461;27;19926;-50
2023/04/13 13:40:39;;;;;;;;;;;13.50;99.90;;;;;;5140940;27;20397;-49
2023/04/13 13:43:05;;;;;;;;;;;13.40;99.90;;;;;;5136543;27;19923;-52
2023/04/13 13:45:30;;;;;;;;;;;13.20;99.90;;;;;;5135212;27;19948;-48
2023/04/13 13:47:56;;;;;;;;;;;13.40;99.90;;;;;;5145702;27;20015;-50
2023/04/13 13:50:22;;;;;;;;;;;13.40;99.90;;;;;;5149283;27;20364;-48
2023/04/13 13:52:48;;;;;;;;;;;13.70;99.90;;;;;;5136162;27;19926;-48
2023/04/13 13:55:13;;;;;;;;;;;14.10;99.90;;;;;;5116773;27;19923;-48
2023/04/13 13:57:39;;;;;;;;;;;14.10;99.90;;;;;;5132307;27;19926;-48
2023/04/13 14:00:15;;;;;;;;;;;14.20;99.90;;;;;;5124340;27;20325;-48
2023/04/13 14:02:40;;;;;;;;;;;14.40;99.90;;;;;;5118256;27;19938;-48
2023/04/13 14:05:07;;;;;;;;;;;14.40;99.90;;;;;;5137805;27;19920;-50
2023/04/13 14:07:32;;;;;;;;;;;14.30;99.90;;;;;;5129668;27;19926;-49
2023/04/13 14:09:58;;;;;;;;;;;14.10;99.90;;;;;;5133243;27;19927;-48
2023/04/13 14:12:23;;;;;;;;;;;13.80;99.90;;;;;;5143573;27;19935;-49
2023/04/13 14:14:49;;;;;;;;;;;14.10;99.90;;;;;;5132245;27;20052;-48
2023/04/13 14:17:14;;;;;;;;;;;14.30;99.90;;;;;;5135168;27;20369;-50
2023/04/13 14:19:40;;;;;;;;;;;14.20;99.90;;;;;;5136249;27;19927;-50
2023/04/13 14:22:05;;;;;;;;;;;14.30;99.90;;;;;;5141418;27;19920;-48